Time;durP1;ratioP1;P1;durP2;ratioP2;P2;SDS_P1;SDS_P2;PMS_P1;PMS_P2;Temp;Humidity;BMP_temperature;BMP_pressure;BME280_temperature;BME280_humidity;BME280_pressure;Samples;Min_cycle;Max_cycle;Signal;HPM_P1;HPM_P2
2023/09/29 00:00:17;;;;;;;12.10;4.13;;;19.10;76.70;;;;;;5027813;28;20059;-69
2023/09/29 00:02:44;;;;;;;14.98;4.20;;;19.10;76.60;;;;;;5029497;28;20749;-69
2023/09/29 00:05:10;;;;;;;9.85;3.90;;;19.10;76.50;;;;;;5030734;28;20382;-69
2023/09/29 00:07:39;;;;;;;12.70;4.82;;;19.10;76.50;;;;;;5027951;28;20030;-69
2023/09/29 00:10:09;;;;;;;11.95;4.22;;;19.10;76.50;;;;;;5030439;28;20017;-69
2023/09/29 00:12:37;;;;;;;11.63;4.03;;;19.10;76.30;;;;;;5042782;28;20024;-69
2023/09/29 00:15:04;;;;;;;11.88;4.35;;;19.10;76.20;;;;;;5030902;28;20029;-69
2023/09/29 00:17:31;;;;;;;9.35;4.75;;;19.10;76.30;;;;;;5028570;28;20445;-69
2023/09/29 00:19:57;;;;;;;12.25;5.15;;;19.10;76.30;;;;;;5030114;28;20025;-69
2023/09/29 00:22:23;;;;;;;10.48;4.03;;;19.10;76.30;;;;;;5026674;28;20029;-69
2023/09/29 00:24:48;;;;;;;11.32;4.25;;;19.10;76.30;;;;;;5030402;28;20024;-69
2023/09/29 00:27:14;;;;;;;14.07;5.13;;;19.10;76.30;;;;;;5038168;28;20470;-69
2023/09/29 00:29:40;;;;;;;10.65;4.65;;;19.10;76.40;;;;;;5027937;28;20080;-69
2023/09/29 00:32:06;;;;;;;16.42;4.43;;;19.10;76.40;;;;;;5030156;28;20044;-69
2023/09/29 00:34:31;;;;;;;11.90;4.18;;;19.10;76.50;;;;;;5035919;28;20099;-69
2023/09/29 00:36:59;;;;;;;13.55;4.55;;;19.10;76.60;;;;;;5028078;28;20021;-69
2023/09/29 00:39:25;;;;;;;11.65;4.40;;;19.10;76.60;;;;;;5027573;28;20528;-69
2023/09/29 00:41:51;;;;;;;13.00;4.32;;;19.10;76.60;;;;;;5013216;28;20021;-69
2023/09/29 00:44:17;;;;;;;12.23;4.72;;;19.10;76.70;;;;;;5028811;28;20041;-69
2023/09/29 00:46:43;;;;;;;11.57;4.70;;;19.10;76.70;;;;;;5030572;28;20032;-69
2023/09/29 00:49:09;;;;;;;11.75;4.45;;;19.10;76.70;;;;;;5028959;28;20026;-69
2023/09/29 00:51:35;;;;;;;11.25;4.35;;;19.10;76.80;;;;;;5029293;28;20032;-69
2023/09/29 00:54:08;;;;;;;9.32;3.88;;;19.10;76.90;;;;;;5029008;28;20036;-69
2023/09/29 00:56:37;;;;;;;13.55;4.38;;;19.10;76.90;;;;;;5028532;28;20430;-69
2023/09/29 00:59:06;;;;;;;13.82;4.28;;;19.10;76.90;;;;;;5028331;28;20013;-70
2023/09/29 01:01:35;;;;;;;10.85;4.60;;;19.10;77.00;;;;;;5029994;28;20037;-69
2023/09/29 01:04:02;;;;;;;12.10;4.35;;;19.10;77.00;;;;;;5036218;28;20017;-70
2023/09/29 01:06:31;;;;;;;12.25;4.97;;;19.10;77.00;;;;;;5034649;28;20030;-70
2023/09/29 01:08:58;;;;;;;10.30;4.72;;;19.10;77.00;;;;;;5028755;28;20069;-69
2023/09/29 01:11:24;;;;;;;12.85;4.38;;;19.10;77.00;;;;;;5028781;28;20084;-69
2023/09/29 01:13:51;;;;;;;10.27;4.25;;;19.10;77.00;;;;;;5029440;28;20030;-69
2023/09/29 01:16:17;;;;;;;12.18;4.93;;;19.10;77.10;;;;;;5029446;28;20037;-69
2023/09/29 01:18:43;;;;;;;9.68;4.15;;;19.10;77.20;;;;;;5029210;28;20034;-69
2023/09/29 01:21:09;;;;;;;11.27;5.03;;;19.10;77.20;;;;;;5026731;28;20091;-69
2023/09/29 01:23:35;;;;;;;12.00;5.25;;;19.10;77.30;;;;;;5036028;28;20078;-69
2023/09/29 01:26:05;;;;;;;12.88;4.97;;;19.10;77.30;;;;;;5029804;28;20461;-69
2023/09/29 01:28:31;;;;;;;12.05;5.13;;;19.10;77.30;;;;;;5029543;28;20041;-69
2023/09/29 01:30:57;;;;;;;10.93;5.00;;;19.10;77.40;;;;;;5027108;28;20407;-69
2023/09/29 01:33:22;;;;;;;11.45;5.32;;;19.10;77.40;;;;;;5029108;28;20033;-69
2023/09/29 01:35:48;;;;;;;12.63;5.30;;;19.10;77.50;;;;;;5028910;28;20032;-69
2023/09/29 01:38:15;;;;;;;12.40;5.55;;;19.10;77.60;;;;;;5042573;28;20613;-69
2023/09/29 01:40:41;;;;;;;11.18;5.93;;;19.10;77.60;;;;;;5027399;28;20030;-69
2023/09/29 01:43:07;;;;;;;10.23;4.88;;;19.10;77.60;;;;;;5028246;28;20037;-69
2023/09/29 01:45:32;;;;;;;12.40;5.93;;;19.10;77.70;;;;;;5036500;28;20025;-69
2023/09/29 01:48:00;;;;;;;11.95;5.53;;;19.10;77.70;;;;;;5027673;28;20341;-69
2023/09/29 01:50:26;;;;;;;13.38;5.32;;;19.10;77.70;;;;;;5043187;28;20025;-69
2023/09/29 01:52:52;;;;;;;12.98;5.85;;;19.10;77.60;;;;;;5035396;28;20502;-69
2023/09/29 01:55:19;;;;;;;12.63;6.03;;;19.10;77.60;;;;;;5028866;28;20175;-69
2023/09/29 01:57:49;;;;;;;14.77;5.70;;;19.10;77.60;;;;;;5029494;28;20068;-69
2023/09/29 02:00:25;;;;;;;14.32;6.55;;;19.10;77.60;;;;;;5026771;28;20115;-69
2023/09/29 02:02:53;;;;;;;11.02;5.90;;;19.10;77.70;;;;;;5020948;28;20094;-69
2023/09/29 02:05:19;;;;;;;12.20;5.88;;;19.10;77.70;;;;;;5027970;28;20477;-69
2023/09/29 02:07:46;;;;;;;15.98;6.03;;;19.10;77.80;;;;;;5028773;28;20025;-69
2023/09/29 02:10:19;;;;;;;14.15;5.85;;;19.10;77.90;;;;;;5028166;28;20029;-69
2023/09/29 02:12:53;;;;;;;11.02;5.90;;;19.10;77.90;;;;;;5037777;28;20061;-69
2023/09/29 02:15:19;;;;;;;12.80;6.07;;;19.10;78.00;;;;;;5018837;28;20026;-69
2023/09/29 02:17:48;;;;;;;11.70;6.07;;;19.10;78.00;;;;;;5033181;28;20042;-69
2023/09/29 02:20:18;;;;;;;10.35;5.75;;;19.10;78.00;;;;;;5037558;28;20030;-69
2023/09/29 02:22:45;;;;;;;14.30;6.70;;;19.10;78.10;;;;;;5036206;28;20039;-69
2023/09/29 02:25:14;;;;;;;12.00;6.57;;;19.10;78.00;;;;;;5037863;28;20025;-69
2023/09/29 02:27:40;;;;;;;9.73;5.63;;;19.10;78.00;;;;;;5028719;28;20042;-69
2023/09/29 02:30:09;;;;;;;17.42;6.30;;;19.10;78.00;;;;;;5026099;28;20699;-69
2023/09/29 02:32:41;;;;;;;10.65;6.15;;;19.10;78.00;;;;;;5028943;28;20026;-69
2023/09/29 02:35:10;;;;;;;11.48;5.53;;;19.20;78.10;;;;;;5027486;28;20041;-69
2023/09/29 02:37:36;;;;;;;13.82;6.80;;;19.20;78.10;;;;;;5026140;28;20220;-69
2023/09/29 02:40:07;;;;;;;11.05;6.60;;;19.20;78.10;;;;;;5043851;28;20108;-69
2023/09/29 02:42:33;;;;;;;13.38;6.75;;;19.20;78.80;;;;;;5027594;28;20033;-69
2023/09/29 02:44:59;;;;;;;11.90;5.90;;;19.20;78.20;;;;;;5027485;28;20023;-69
2023/09/29 02:47:25;;;;;;;12.77;6.47;;;19.20;78.20;;;;;;5032738;28;20431;-70
2023/09/29 02:49:51;;;;;;;10.65;5.93;;;19.20;78.90;;;;;;5032301;28;20533;-69
2023/09/29 02:52:16;;;;;;;11.95;6.45;;;19.20;78.40;;;;;;5032026;28;20033;-69
2023/09/29 02:54:42;;;;;;;12.45;6.28;;;19.20;78.40;;;;;;5032608;28;20087;-69
2023/09/29 02:57:08;;;;;;;10.60;5.95;;;19.10;78.40;;;;;;5031639;28;20055;-69
2023/09/29 02:59:34;;;;;;;12.48;6.15;;;19.10;78.40;;;;;;5031657;28;20025;-69
2023/09/29 03:02:01;;;;;;;14.15;6.07;;;19.20;78.50;;;;;;5033379;28;20041;-69
2023/09/29 03:04:27;;;;;;;11.02;5.53;;;19.10;78.50;;;;;;5016138;28;20359;-69
2023/09/29 03:06:52;;;;;;;11.50;6.00;;;19.10;78.40;;;;;;5047089;28;20032;-69
2023/09/29 03:09:19;;;;;;;12.68;6.35;;;19.10;78.50;;;;;;5031539;28;20029;-70
2023/09/29 03:11:45;;;;;;;11.27;6.45;;;19.10;78.60;;;;;;5031946;28;20442;-70
2023/09/29 03:14:11;;;;;;;9.73;6.03;;;19.10;78.70;;;;;;5032646;28;20029;-70
2023/09/29 03:16:37;;;;;;;12.15;5.82;;;19.10;78.80;;;;;;5030571;28;20041;-69
2023/09/29 03:19:03;;;;;;;10.75;6.03;;;19.00;78.80;;;;;;5037301;28;20049;-69
2023/09/29 03:21:29;;;;;;;9.15;5.65;;;19.00;78.90;;;;;;5031006;28;20112;-69
2023/09/29 03:23:56;;;;;;;11.45;5.82;;;19.00;79.00;;;;;;5032396;28;20399;-69
2023/09/29 03:26:22;;;;;;;12.15;6.60;;;19.00;79.00;;;;;;5045886;28;20056;-69
2023/09/29 03:28:51;;;;;;;12.55;5.78;;;18.90;79.00;;;;;;5033302;28;20103;-69
2023/09/29 03:31:21;;;;;;;11.63;6.30;;;18.90;79.20;;;;;;5045624;28;20025;-69
2023/09/29 03:33:47;;;;;;;11.05;5.35;;;18.90;79.20;;;;;;5030049;28;20040;-69
2023/09/29 03:36:14;;;;;;;10.65;5.20;;;18.90;79.20;;;;;;5032570;28;20025;-69
2023/09/29 03:38:41;;;;;;;9.70;5.20;;;18.90;79.30;;;;;;5033352;28;20033;-69
2023/09/29 03:41:09;;;;;;;9.48;5.03;;;18.90;79.30;;;;;;5041558;28;20400;-70
2023/09/29 03:43:35;;;;;;;10.40;5.13;;;18.90;79.30;;;;;;5037099;28;20048;-69
2023/09/29 03:46:00;;;;;;;12.88;5.63;;;18.90;79.30;;;;;;5038597;28;20030;-69
2023/09/29 03:48:26;;;;;;;11.30;5.35;;;18.90;79.30;;;;;;5022161;28;20034;-69
2023/09/29 03:50:53;;;;;;;11.30;5.47;;;18.90;79.30;;;;;;5035039;28;20120;-69
2023/09/29 03:53:19;;;;;;;11.10;5.07;;;19.00;79.30;;;;;;5044269;28;20338;-69
2023/09/29 03:55:45;;;;;;;9.77;5.25;;;18.90;79.30;;;;;;5037013;28;20018;-69
2023/09/29 03:58:11;;;;;;;10.05;5.22;;;18.90;80.00;;;;;;5033820;28;20077;-69
2023/09/29 04:00:37;;;;;;;9.93;5.13;;;18.90;79.30;;;;;;5046161;28;20033;-69
2023/09/29 04:03:02;;;;;;;9.32;4.95;;;18.90;79.30;;;;;;5044190;28;20144;-69
2023/09/29 04:05:28;;;;;;;9.80;5.00;;;18.90;79.30;;;;;;5035351;28;20465;-69
2023/09/29 04:07:54;;;;;;;9.05;4.63;;;18.90;79.30;;;;;;5044856;28;20109;-69
2023/09/29 04:10:21;;;;;;;8.60;4.38;;;18.90;79.30;;;;;;5039613;28;20479;-70
2023/09/29 04:12:47;;;;;;;9.25;4.43;;;18.90;79.30;;;;;;5046417;28;20051;-69
2023/09/29 04:15:13;;;;;;;8.98;4.68;;;18.90;79.30;;;;;;5043427;28;20030;-69
2023/09/29 04:17:39;;;;;;;9.45;4.95;;;18.90;79.30;;;;;;5030943;28;20147;-69
2023/09/29 04:20:07;;;;;;;7.78;4.50;;;18.90;79.30;;;;;;5038827;28;20025;-69
2023/09/29 04:22:33;;;;;;;9.05;4.53;;;18.90;79.30;;;;;;5039222;28;20041;-70
2023/09/29 04:24:59;;;;;;;8.68;4.18;;;18.90;79.30;;;;;;5035269;28;20053;-69
2023/09/29 04:27:25;;;;;;;8.18;4.53;;;19.00;79.40;;;;;;5038245;28;20025;-69
2023/09/29 04:29:54;;;;;;;9.88;4.45;;;18.90;79.30;;;;;;5041048;28;20021;-68
2023/09/29 04:32:20;;;;;;;8.85;4.25;;;18.90;79.30;;;;;;5040923;28;20522;-70
2023/09/29 04:34:45;;;;;;;12.52;4.72;;;18.90;79.40;;;;;;5051586;28;20196;-70
2023/09/29 04:37:11;;;;;;;9.15;4.35;;;18.90;79.40;;;;;;5033335;28;20033;-70
2023/09/29 04:39:40;;;;;;;9.50;4.43;;;18.90;79.40;;;;;;5034312;28;20331;-70
2023/09/29 04:42:06;;;;;;;9.13;4.15;;;19.00;79.50;;;;;;5033599;28;20192;-69
2023/09/29 04:44:32;;;;;;;10.20;4.05;;;19.00;79.50;;;;;;5035288;28;20407;-69
2023/09/29 04:46:58;;;;;;;8.95;4.60;;;18.90;79.40;;;;;;5035323;28;20040;-69
2023/09/29 04:49:24;;;;;;;7.85;4.47;;;18.90;79.50;;;;;;5037642;28;20086;-70
2023/09/29 04:51:50;;;;;;;9.60;4.32;;;18.90;79.50;;;;;;5034814;28;20041;-69
2023/09/29 04:54:16;;;;;;;8.90;4.38;;;18.90;79.60;;;;;;5034582;28;20098;-70
2023/09/29 04:56:41;;;;;;;10.77;4.35;;;18.90;79.70;;;;;;5033385;28;20021;-69
2023/09/29 04:59:08;;;;;;;10.05;4.22;;;18.90;79.70;;;;;;5022315;28;20117;-69
2023/09/29 05:01:36;;;;;;;7.53;3.85;;;18.90;79.70;;;;;;5044424;28;20037;-70
2023/09/29 05:04:02;;;;;;;8.77;4.38;;;18.90;79.80;;;;;;5018796;28;20048;-69
2023/09/29 05:06:29;;;;;;;9.02;4.57;;;19.00;79.90;;;;;;5029267;28;20458;-70
2023/09/29 05:08:55;;;;;;;8.13;4.32;;;19.00;79.90;;;;;;5042442;28;20025;-69
2023/09/29 05:11:25;;;;;;;8.13;4.20;;;19.00;79.90;;;;;;5040712;28;20088;-68
2023/09/29 05:13:52;;;;;;;7.22;3.78;;;19.00;79.90;;;;;;5031197;28;20022;-69
2023/09/29 05:16:18;;;;;;;9.63;4.05;;;19.00;79.90;;;;;;5030289;28;20091;-69
2023/09/29 05:18:45;;;;;;;7.78;3.75;;;19.00;79.90;;;;;;5030655;28;20052;-68
2023/09/29 05:21:11;;;;;;;8.05;4.00;;;19.00;80.00;;;;;;5026454;28;20112;-69
2023/09/29 05:23:38;;;;;;;10.68;4.20;;;19.00;80.00;;;;;;5029910;28;20106;-70
2023/09/29 05:26:05;;;;;;;8.60;4.13;;;19.10;80.10;;;;;;5044897;28;20029;-65
2023/09/29 05:28:32;;;;;;;7.72;3.28;;;19.10;80.10;;;;;;5030918;28;20022;-67
2023/09/29 05:30:57;;;;;;;7.88;3.75;;;19.10;80.00;;;;;;5033826;28;20017;-69
2023/09/29 05:33:23;;;;;;;8.02;3.78;;;19.10;80.00;;;;;;5033834;28;20044;-67
2023/09/29 05:35:50;;;;;;;9.50;4.30;;;19.10;80.00;;;;;;5026062;28;20032;-68
2023/09/29 05:38:16;;;;;;;8.35;3.95;;;19.10;80.10;;;;;;5027750;28;20550;-68
2023/09/29 05:40:42;;;;;;;9.32;3.60;;;19.10;80.10;;;;;;5025815;28;20447;-67
2023/09/29 05:43:10;;;;;;;6.90;3.20;;;19.20;80.10;;;;;;5026468;28;20032;-67
2023/09/29 05:45:41;;;;;;;8.10;3.58;;;19.20;80.00;;;;;;5028676;28;20052;-67
2023/09/29 05:48:07;;;;;;;7.78;3.33;;;19.20;80.00;;;;;;5028521;28;20986;-66
2023/09/29 05:50:33;;;;;;;6.18;2.88;;;19.20;79.90;;;;;;5027412;28;20500;-68
2023/09/29 05:52:59;;;;;;;5.80;3.08;;;19.30;79.90;;;;;;5028648;28;20406;-67
2023/09/29 05:55:25;;;;;;;6.90;3.05;;;19.30;79.90;;;;;;5028422;28;20038;-67
2023/09/29 05:57:51;;;;;;;5.97;2.50;;;19.30;79.90;;;;;;5028656;28;20159;-67
2023/09/29 06:00:18;;;;;;;6.68;3.00;;;19.40;79.90;;;;;;5043801;28;20021;-68
2023/09/29 06:02:44;;;;;;;6.45;3.13;;;19.40;79.90;;;;;;5043787;28;20378;-67
2023/09/29 06:05:10;;;;;;;6.75;3.03;;;19.40;79.80;;;;;;5042793;28;20117;-67
2023/09/29 06:07:36;;;;;;;7.50;3.20;;;19.40;79.80;;;;;;5010422;28;20029;-67
2023/09/29 06:10:04;;;;;;;6.53;3.20;;;19.40;79.90;;;;;;5028519;28;20128;-67
2023/09/29 06:12:30;;;;;;;7.25;3.17;;;19.40;79.90;;;;;;5028210;28;20048;-67
2023/09/29 06:14:56;;;;;;;6.60;3.03;;;19.40;79.90;;;;;;5043641;28;20037;-67
2023/09/29 06:17:22;;;;;;;6.30;2.72;;;19.50;79.90;;;;;;5028151;28;20363;-67
2023/09/29 06:19:48;;;;;;;6.55;3.10;;;19.50;79.90;;;;;;5028589;28;20029;-67
2023/09/29 06:22:14;;;;;;;5.90;2.63;;;19.50;79.90;;;;;;5029468;28;20362;-67
2023/09/29 06:24:42;;;;;;;6.93;3.20;;;19.50;79.90;;;;;;5027602;28;20029;-67
2023/09/29 06:27:07;;;;;;;6.55;2.78;;;19.60;79.90;;;;;;5023121;28;20018;-66
2023/09/29 06:29:33;;;;;;;7.78;3.08;;;19.60;79.90;;;;;;5025886;28;20066;-66
2023/09/29 06:31:59;;;;;;;8.27;4.47;;;19.60;79.80;;;;;;5027411;28;20034;-66
2023/09/29 06:34:25;;;;;;;8.90;3.75;;;19.70;79.80;;;;;;5045051;28;20365;-67
2023/09/29 06:36:50;;;;;;;8.52;3.45;;;19.70;79.70;;;;;;5028487;28;20021;-66
2023/09/29 06:39:16;;;;;;;8.40;3.20;;;19.80;79.70;;;;;;5044121;28;20044;-66
2023/09/29 06:41:42;;;;;;;8.27;3.08;;;19.80;79.70;;;;;;5029088;28;20045;-67
2023/09/29 06:44:08;;;;;;;8.00;3.42;;;19.80;79.70;;;;;;5044012;28;20518;-66
2023/09/29 06:46:34;;;;;;;6.15;3.05;;;19.80;79.70;;;;;;5042325;28;20081;-67
2023/09/29 06:49:03;;;;;;;6.70;3.03;;;19.80;79.70;;;;;;5026322;28;20026;-67
2023/09/29 06:51:29;;;;;;;8.85;2.97;;;19.80;79.80;;;;;;5032622;28;20022;-67
2023/09/29 06:53:55;;;;;;;8.45;3.25;;;19.80;79.80;;;;;;5032623;28;20029;-67
2023/09/29 06:56:20;;;;;;;7.65;3.20;;;19.80;79.90;;;;;;5047805;28;20029;-67
2023/09/29 06:58:49;;;;;;;7.38;3.60;;;19.80;79.90;;;;;;5051100;28;20094;-67
2023/09/29 07:01:16;;;;;;;6.97;2.97;;;19.80;80.00;;;;;;5041201;28;20086;-67
2023/09/29 07:03:41;;;;;;;8.57;3.30;;;19.80;80.00;;;;;;5053623;28;20043;-67
2023/09/29 07:06:07;;;;;;;8.25;2.80;;;19.80;80.00;;;;;;5061045;28;20104;-66
2023/09/29 07:08:33;;;;;;;6.32;3.17;;;19.90;80.10;;;;;;5052503;28;20357;-67
2023/09/29 07:10:59;;;;;;;5.85;2.83;;;19.90;80.10;;;;;;5046540;28;20032;-67
2023/09/29 07:13:24;;;;;;;5.72;2.85;;;19.90;80.10;;;;;;5040024;28;20029;-67
2023/09/29 07:15:50;;;;;;;6.90;2.97;;;19.90;80.10;;;;;;5019444;28;20124;-67
2023/09/29 07:18:16;;;;;;;5.70;2.38;;;19.90;80.10;;;;;;5045175;28;20056;-67
2023/09/29 07:20:43;;;;;;;7.22;2.80;;;20.00;80.10;;;;;;5042736;28;20036;-67
2023/09/29 07:23:09;;;;;;;6.35;2.78;;;20.00;80.10;;;;;;5030103;28;20059;-67
2023/09/29 07:25:40;;;;;;;7.90;2.72;;;20.00;80.00;;;;;;5031771;28;20018;-67
2023/09/29 07:28:15;;;;;;;6.75;2.63;;;20.10;80.00;;;;;;5031772;28;20331;-67
2023/09/29 07:30:41;;;;;;;6.65;2.78;;;20.10;80.00;;;;;;5054853;28;20366;-68
2023/09/29 07:33:08;;;;;;;7.47;2.97;;;20.20;79.90;;;;;;5043263;28;20017;-68
2023/09/29 07:35:35;;;;;;;7.75;3.13;;;20.20;79.80;;;;;;5050268;28;20025;-68
2023/09/29 07:38:00;;;;;;;5.95;2.78;;;20.30;79.70;;;;;;5051560;28;20017;-67
2023/09/29 07:40:26;;;;;;;5.85;3.20;;;20.40;79.60;;;;;;5053508;28;20096;-67
2023/09/29 07:42:52;;;;;;;7.25;2.72;;;20.40;79.50;;;;;;5035034;28;20025;-67
2023/09/29 07:45:20;;;;;;;7.93;2.90;;;20.40;79.50;;;;;;5043417;28;20032;-67
2023/09/29 07:47:46;;;;;;;8.35;2.80;;;20.50;79.50;;;;;;5048908;28;20018;-67
2023/09/29 07:50:13;;;;;;;7.70;3.15;;;20.50;79.50;;;;;;5042212;28;20154;-67
2023/09/29 07:52:39;;;;;;;6.80;2.95;;;20.50;79.60;;;;;;5043496;28;20093;-67
2023/09/29 07:55:09;;;;;;;6.90;3.00;;;20.40;79.60;;;;;;5054168;28;20021;-67
2023/09/29 07:57:35;;;;;;;6.95;2.95;;;20.40;79.60;;;;;;5052674;28;20044;-67
2023/09/29 08:00:04;;;;;;;6.78;2.80;;;20.50;79.70;;;;;;5036748;28;20113;-67
2023/09/29 08:02:37;;;;;;;7.38;3.08;;;20.50;79.60;;;;;;5043204;28;20033;-67
2023/09/29 08:05:03;;;;;;;6.20;3.05;;;20.50;80.10;;;;;;5052666;28;20036;-67
2023/09/29 08:07:29;;;;;;;5.88;2.80;;;20.60;79.50;;;;;;5049886;28;20057;-67
2023/09/29 08:09:55;;;;;;;7.68;3.00;;;20.60;79.40;;;;;;5034603;28;20064;-67
2023/09/29 08:12:21;;;;;;;6.20;3.00;;;20.60;79.20;;;;;;5044898;28;20071;-67
2023/09/29 08:14:47;;;;;;;6.18;2.92;;;20.60;79.90;;;;;;5035120;28;20034;-68
2023/09/29 08:17:13;;;;;;;6.20;2.55;;;20.70;79.30;;;;;;5044368;28;20080;-68
2023/09/29 08:19:42;;;;;;;9.77;3.15;;;20.70;79.20;;;;;;5033318;28;20069;-67
2023/09/29 08:22:07;;;;;;;9.63;3.22;;;20.80;79.20;;;;;;5034648;28;20029;-67
2023/09/29 08:24:34;;;;;;;7.70;3.17;;;20.80;79.20;;;;;;5041578;28;20036;-67
2023/09/29 08:27:00;;;;;;;10.20;2.97;;;20.80;79.20;;;;;;5035754;28;20052;-67
2023/09/29 08:29:26;;;;;;;6.82;2.85;;;20.80;79.20;;;;;;5035715;28;20060;-68
2023/09/29 08:31:53;;;;;;;5.38;2.67;;;20.90;79.20;;;;;;5033639;28;20017;-68
2023/09/29 08:34:19;;;;;;;6.38;3.05;;;20.90;79.10;;;;;;5030450;28;20029;-67
2023/09/29 08:36:45;;;;;;;6.25;2.88;;;21.00;79.00;;;;;;5030261;28;20036;-68
2023/09/29 08:39:11;;;;;;;5.45;2.42;;;21.10;78.90;;;;;;5030517;28;20062;-67
2023/09/29 08:41:48;;;;;;;6.43;2.85;;;21.10;78.80;;;;;;5042182;28;20021;-67
2023/09/29 08:44:18;;;;;;;6.05;2.60;;;21.20;78.70;;;;;;5028255;28;20037;-67
2023/09/29 08:46:48;;;;;;;6.13;2.55;;;21.20;78.50;;;;;;5028010;28;20371;-67
2023/09/29 08:49:17;;;;;;;5.60;2.53;;;21.30;78.30;;;;;;5027457;28;20084;-67
2023/09/29 08:51:47;;;;;;;6.50;2.72;;;21.40;78.10;;;;;;5030384;28;20082;-67
2023/09/29 08:54:18;;;;;;;5.55;2.38;;;21.50;78.00;;;;;;5026944;28;20068;-67
2023/09/29 08:56:46;;;;;;;5.38;2.50;;;21.60;77.80;;;;;;5027960;28;20101;-68
2023/09/29 08:59:13;;;;;;;5.32;2.53;;;21.70;77.60;;;;;;5029731;28;20474;-68
2023/09/29 09:01:40;;;;;;;6.43;2.65;;;21.80;77.50;;;;;;5028439;28;20087;-68
2023/09/29 09:04:06;;;;;;;4.55;2.35;;;21.80;77.30;;;;;;5034919;28;20097;-68
2023/09/29 09:06:32;;;;;;;6.50;2.40;;;21.90;77.20;;;;;;5029531;28;20022;-68
2023/09/29 09:08:57;;;;;;;7.18;2.83;;;22.00;77.10;;;;;;5027594;28;20029;-68
2023/09/29 09:11:23;;;;;;;6.88;2.55;;;22.10;76.90;;;;;;5029643;28;20025;-68
2023/09/29 09:14:03;;;;;;;8.35;2.80;;;22.20;76.80;;;;;;5027367;28;20112;-68
2023/09/29 09:16:32;;;;;;;5.55;2.45;;;22.30;76.50;;;;;;5027731;28;20388;-68
2023/09/29 09:19:16;;;;;;;5.80;2.53;;;22.50;76.10;;;;;;5024525;28;20472;-68
2023/09/29 09:21:43;;;;;;;8.80;2.42;;;22.60;75.80;;;;;;5029391;28;20040;-68
2023/09/29 09:24:27;;;;;;;6.13;2.50;;;22.60;75.60;;;;;;5026767;28;20036;-69
2023/09/29 09:27:01;;;;;;;6.68;2.47;;;22.70;75.30;;;;;;5029932;28;20029;-68
2023/09/29 09:29:28;;;;;;;5.50;2.22;;;22.80;75.20;;;;;;5040049;28;20497;-69
2023/09/29 09:31:56;;;;;;;6.55;2.80;;;22.90;74.80;;;;;;5028621;28;20513;-68
2023/09/29 09:34:32;;;;;;;5.72;2.08;;;23.00;74.60;;;;;;5027564;28;20036;-68
2023/09/29 09:36:58;;;;;;;6.20;2.40;;;22.90;74.60;;;;;;5027601;28;20120;-69
2023/09/29 09:39:24;;;;;;;5.57;2.70;;;22.80;74.80;;;;;;5029852;28;20061;-68
2023/09/29 09:41:57;;;;;;;8.05;2.65;;;22.70;74.90;;;;;;5026940;28;20021;-69
2023/09/29 09:44:23;;;;;;;7.50;2.92;;;22.60;75.00;;;;;;5024838;28;20097;-68
2023/09/29 09:47:10;;;;;;;7.18;2.80;;;22.60;75.10;;;;;;5027131;28;20018;-68
2023/09/29 09:49:41;;;;;;;6.53;2.50;;;22.60;75.10;;;;;;5028688;28;20030;-68
2023/09/29 09:52:08;;;;;;;6.45;2.63;;;22.70;75.00;;;;;;5025782;28;20021;-68
2023/09/29 09:54:48;;;;;;;6.90;2.80;;;22.80;74.70;;;;;;5027113;28;20445;-68
2023/09/29 09:57:35;;;;;;;6.60;2.45;;;22.80;74.40;;;;;;5026454;28;20339;-68
2023/09/29 10:00:10;;;;;;;6.55;2.85;;;22.80;74.40;;;;;;5029317;28;20035;-68
2023/09/29 10:02:51;;;;;;;6.75;2.95;;;22.70;74.40;;;;;;5026878;28;20088;-68
2023/09/29 10:05:30;;;;;;;7.45;2.30;;;22.70;74.50;;;;;;5027489;28;20029;-68
2023/09/29 10:08:02;;;;;;;6.65;2.97;;;22.70;74.60;;;;;;5041250;28;20083;-68
2023/09/29 10:10:35;;;;;;;6.50;2.72;;;22.70;74.70;;;;;;5026338;28;20017;-69
2023/09/29 10:13:05;;;;;;;6.60;3.00;;;22.70;75.30;;;;;;5027046;28;20077;-69
2023/09/29 10:15:32;;;;;;;7.22;3.22;;;22.70;74.60;;;;;;5028037;28;20029;-68
2023/09/29 10:18:13;;;;;;;5.65;2.50;;;22.70;74.60;;;;;;5026800;28;20129;-69
2023/09/29 10:20:39;;;;;;;6.88;3.08;;;22.70;74.50;;;;;;5026821;28;20097;-68
2023/09/29 10:23:13;;;;;;;7.88;2.95;;;22.70;74.40;;;;;;5028707;28;20033;-68
2023/09/29 10:25:47;;;;;;;6.20;2.92;;;22.70;74.40;;;;;;5027618;28;20032;-67
2023/09/29 10:28:17;;;;;;;8.80;2.70;;;22.70;74.40;;;;;;5026762;28;20458;-68
2023/09/29 10:30:43;;;;;;;5.82;2.58;;;22.70;74.40;;;;;;5017173;28;20029;-68
2023/09/29 10:33:13;;;;;;;8.50;3.00;;;22.60;74.40;;;;;;5028214;28;20044;-69
2023/09/29 10:35:47;;;;;;;5.63;2.55;;;22.60;74.60;;;;;;5028469;28;20044;-68
2023/09/29 10:38:23;;;;;;;6.35;2.50;;;22.50;74.70;;;;;;5037988;28;20033;-68
2023/09/29 10:40:50;;;;;;;5.18;2.78;;;22.50;75.40;;;;;;5029496;28;20056;-68
2023/09/29 10:43:25;;;;;;;7.25;2.65;;;22.50;74.70;;;;;;5045693;28;20469;-69
2023/09/29 10:45:51;;;;;;;6.57;2.83;;;22.60;74.70;;;;;;5028045;28;21362;-69
2023/09/29 10:48:26;;;;;;;6.57;2.80;;;22.60;74.60;;;;;;5023718;28;20025;-69
2023/09/29 10:50:52;;;;;;;6.68;2.58;;;22.60;74.70;;;;;;5026942;28;20469;-69
2023/09/29 10:53:22;;;;;;;7.53;2.72;;;22.50;74.90;;;;;;5031851;28;20036;-68
2023/09/29 10:55:54;;;;;;;5.65;2.33;;;22.40;75.40;;;;;;5027171;28;20029;-69
2023/09/29 10:58:21;;;;;;;6.53;2.50;;;22.40;76.00;;;;;;5026433;28;20034;-69
2023/09/29 11:00:49;;;;;;;6.70;2.75;;;22.40;76.10;;;;;;5028560;28;20087;-69
2023/09/29 11:03:17;;;;;;;6.68;2.55;;;22.40;76.30;;;;;;5025682;28;20351;-69
2023/09/29 11:05:51;;;;;;;6.35;2.60;;;22.40;76.50;;;;;;5028884;28;20025;-68
2023/09/29 11:08:21;;;;;;;6.20;2.72;;;22.40;76.70;;;;;;5034585;28;20048;-68
2023/09/29 11:10:58;;;;;;;6.60;2.75;;;22.30;76.80;;;;;;5025528;28;20300;-68
2023/09/29 11:13:26;;;;;;;8.68;3.05;;;22.30;77.00;;;;;;5031945;28;20036;-68
2023/09/29 11:15:52;;;;;;;7.43;2.80;;;22.20;77.00;;;;;;5031708;28;20044;-69
2023/09/29 11:18:35;;;;;;;5.80;2.65;;;22.10;77.10;;;;;;5032431;28;20091;-68
2023/09/29 11:21:08;;;;;;;5.28;2.50;;;22.20;77.30;;;;;;5032040;28;20454;-68
2023/09/29 11:23:44;;;;;;;6.40;2.60;;;22.10;77.40;;;;;;5030720;28;20391;-69
2023/09/29 11:26:10;;;;;;;6.10;2.70;;;22.10;77.60;;;;;;5031254;28;20124;-69
2023/09/29 11:28:41;;;;;;;6.45;3.05;;;22.00;77.60;;;;;;5031598;28;20026;-69
2023/09/29 11:31:09;;;;;;;8.93;2.90;;;22.00;77.60;;;;;;5031803;28;20091;-68
2023/09/29 11:33:35;;;;;;;9.02;2.92;;;22.00;77.60;;;;;;5043879;28;20322;-69
2023/09/29 11:36:10;;;;;;;7.63;3.10;;;22.10;77.60;;;;;;5032281;28;20029;-70
2023/09/29 11:38:36;;;;;;;7.00;2.88;;;22.20;77.50;;;;;;5030156;28;20476;-69
2023/09/29 11:41:01;;;;;;;6.32;2.78;;;22.30;77.40;;;;;;5030396;28;20021;-69
2023/09/29 11:43:27;;;;;;;7.10;3.10;;;22.30;77.20;;;;;;5029847;28;20071;-69
2023/09/29 11:45:53;;;;;;;8.68;2.97;;;22.30;77.30;;;;;;5029814;28;20017;-69
2023/09/29 11:48:18;;;;;;;5.85;2.80;;;22.30;77.50;;;;;;5028151;28;20455;-69
2023/09/29 11:50:44;;;;;;;5.40;2.75;;;22.20;77.70;;;;;;5030229;28;20052;-69
2023/09/29 11:53:10;;;;;;;6.70;3.20;;;22.20;78.00;;;;;;5031159;28;20040;-69
2023/09/29 11:55:37;;;;;;;6.95;3.35;;;22.10;78.30;;;;;;5027883;28;20025;-69
2023/09/29 11:58:03;;;;;;;6.70;3.10;;;22.10;78.60;;;;;;5031888;28;20443;-70
2023/09/29 12:00:29;;;;;;;10.32;2.92;;;22.10;78.80;;;;;;5030555;28;20117;-70
2023/09/29 12:02:55;;;;;;;8.85;3.42;;;22.10;79.00;;;;;;5029813;28;20029;-70
2023/09/29 12:05:21;;;;;;;6.47;2.90;;;22.10;79.10;;;;;;5030344;28;20025;-68
2023/09/29 12:07:47;;;;;;;5.93;3.03;;;22.00;79.20;;;;;;5030247;28;20033;-68
2023/09/29 12:10:15;;;;;;;7.97;3.20;;;22.00;79.30;;;;;;5029570;28;20025;-68
2023/09/29 12:12:41;;;;;;;5.90;2.90;;;21.90;79.50;;;;;;5045693;28;20068;-69
2023/09/29 12:15:08;;;;;;;5.60;3.00;;;21.90;79.70;;;;;;5031364;28;20065;-68
2023/09/29 12:17:34;;;;;;;7.55;3.38;;;21.80;79.90;;;;;;5040954;28;20107;-68
2023/09/29 12:20:01;;;;;;;7.07;3.40;;;21.80;80.20;;;;;;5031154;28;20030;-69
2023/09/29 12:22:31;;;;;;;7.00;3.80;;;21.90;80.50;;;;;;5048125;28;20051;-68
2023/09/29 12:24:56;;;;;;;8.95;3.50;;;21.90;80.60;;;;;;5029937;28;20028;-69
2023/09/29 12:27:22;;;;;;;6.82;3.60;;;21.90;80.70;;;;;;5030382;28;20029;-68
2023/09/29 12:29:49;;;;;;;7.30;4.00;;;21.90;80.90;;;;;;5032514;28;20017;-69
2023/09/29 12:32:14;;;;;;;6.65;3.67;;;21.80;81.00;;;;;;5047292;28;20029;-68
2023/09/29 12:34:41;;;;;;;6.95;3.42;;;21.80;81.10;;;;;;5032359;28;20025;-68
2023/09/29 12:37:08;;;;;;;7.07;3.30;;;21.80;81.30;;;;;;5030241;28;21855;-68
2023/09/29 12:39:34;;;;;;;4.60;2.58;;;21.70;81.50;;;;;;5030585;28;20037;-68
2023/09/29 12:41:59;;;;;;;5.60;2.42;;;21.70;81.80;;;;;;5029815;28;20032;-69
2023/09/29 12:44:25;;;;;;;5.85;2.20;;;21.60;81.90;;;;;;5030090;28;20021;-68